createdAt,value
2022-12-13T00:00:57.369Z,97.26
2022-12-13T00:03:23.971Z,96.86
2022-12-13T00:05:50.552Z,97.27
2022-12-13T00:08:17.331Z,98.31
2022-12-13T00:10:43.942Z,100.00
2022-12-13T00:13:10.525Z,99.87
2022-12-13T00:15:37.124Z,99.98
2022-12-13T00:18:03.794Z,99.85
2022-12-13T00:20:30.365Z,99.85
2022-12-13T00:22:56.947Z,99.87
2022-12-13T00:25:23.644Z,100.00
2022-12-13T00:27:50.343Z,100.00
2022-12-13T00:30:16.965Z,99.96
2022-12-13T00:32:43.560Z,99.91
2022-12-13T00:35:10.170Z,98.74
2022-12-13T00:37:36.814Z,97.82
2022-12-13T00:40:03.819Z,96.96
2022-12-13T00:42:30.403Z,98.89
2022-12-13T00:44:57.051Z,97.83
2022-12-13T00:47:23.829Z,95.73
2022-12-13T00:49:50.450Z,95.03
2022-12-13T00:52:17.038Z,94.10
2022-12-13T00:54:43.635Z,94.54
2022-12-13T00:57:10.195Z,94.78
2022-12-13T00:59:36.810Z,93.37
2022-12-13T01:02:04.092Z,93.46
2022-12-13T01:04:30.732Z,92.94
2022-12-13T01:06:57.389Z,92.17
2022-12-13T01:09:26.399Z,94.21
2022-12-13T01:12:05.995Z,93.51
2022-12-13T01:14:35.531Z,93.90
2022-12-13T01:17:02.303Z,93.97
2022-12-13T01:19:29.075Z,96.65
2022-12-13T01:21:56.785Z,98.89
2022-12-13T01:24:23.417Z,100.00
2022-12-13T01:26:50.594Z,98.46
2022-12-13T01:29:18.828Z,99.23
2022-12-13T01:31:45.418Z,99.94
2022-12-13T01:34:14.098Z,99.90
2022-12-13T01:36:42.619Z,100.00
2022-12-13T01:39:15.372Z,100.00
2022-12-13T01:41:43.888Z,100.00
2022-12-13T01:44:48.139Z,99.24
2022-12-13T01:47:20.438Z,99.83
2022-12-13T01:49:47.615Z,100.00
2022-12-13T01:52:15.339Z,100.00
2022-12-13T01:54:47.231Z,100.00
2022-12-13T01:57:19.972Z,100.00
2022-12-13T01:59:47.366Z,98.27
2022-12-13T02:02:15.239Z,98.36
2022-12-13T02:04:50.825Z,100.00
2022-12-13T02:07:23.593Z,100.00
2022-12-13T02:09:57.304Z,100.00
2022-12-13T02:12:31.083Z,100.00
2022-12-13T02:15:12.210Z,100.00
2022-12-13T02:17:44.976Z,100.00
2022-12-13T02:20:22.145Z,100.00
2022-12-13T02:23:32.563Z,100.00
2022-12-13T02:26:17.914Z,100.00
2022-12-13T02:28:59.741Z,100.00
2022-12-13T02:31:44.764Z,100.00
2022-12-13T02:34:24.378Z,100.00
2022-12-13T02:37:06.038Z,100.00
2022-12-13T02:39:54.070Z,100.00
2022-12-13T02:42:35.170Z,100.00
2022-12-13T02:45:17.332Z,100.00
2022-12-13T02:47:49.337Z,100.00
2022-12-13T02:50:16.013Z,100.00
2022-12-13T02:52:43.996Z,100.00
2022-12-13T02:55:15.021Z,100.00
2022-12-13T02:57:43.845Z,100.00
2022-12-13T03:00:29.370Z,100.00
2022-12-13T03:03:11.253Z,99.95
2022-12-13T03:06:12.308Z,99.73
2022-12-13T03:09:03.288Z,100.00
2022-12-13T03:11:39.660Z,99.87
2022-12-13T03:14:09.369Z,100.00
2022-12-13T03:16:42.109Z,100.00
2022-12-13T03:19:10.976Z,100.00
2022-12-13T03:21:47.695Z,100.00
2022-12-13T03:24:20.902Z,100.00
2022-12-13T03:26:49.652Z,100.00
2022-12-13T03:29:23.887Z,100.00
2022-12-13T03:31:52.538Z,100.00
2022-12-13T03:34:22.999Z,100.00
2022-12-13T03:36:52.042Z,100.00
2022-12-13T03:39:19.899Z,100.00
2022-12-13T03:41:46.940Z,100.00
2022-12-13T03:44:13.622Z,100.00
2022-12-13T03:46:40.455Z,100.00
2022-12-13T03:49:07.088Z,100.00
2022-12-13T03:51:33.834Z,100.00
2022-12-13T03:54:00.407Z,100.00
2022-12-13T03:56:26.999Z,99.32
2022-12-13T03:58:53.714Z,99.46
2022-12-13T04:01:20.431Z,100.00
2022-12-13T04:03:47.556Z,100.00
2022-12-13T04:06:22.481Z,100.00
2022-12-13T04:08:51.865Z,99.59
2022-12-13T04:11:19.401Z,100.00
2022-12-13T04:13:45.993Z,100.00
2022-12-13T04:16:12.638Z,100.00
2022-12-13T04:18:39.285Z,99.04
2022-12-13T04:21:06.050Z,100.00
2022-12-13T04:23:32.716Z,100.00
2022-12-13T04:26:00.748Z,99.12
2022-12-13T04:28:27.387Z,100.00
2022-12-13T04:30:54.285Z,100.00
2022-12-13T04:33:22.262Z,98.78
2022-12-13T04:35:50.308Z,99.86
2022-12-13T04:38:17.151Z,100.00
2022-12-13T04:40:43.777Z,99.67
2022-12-13T04:43:10.442Z,99.59
2022-12-13T04:45:37.155Z,100.00
2022-12-13T04:48:04.081Z,100.00
2022-12-13T04:50:30.712Z,100.00
2022-12-13T04:52:57.304Z,100.00
2022-12-13T04:55:23.888Z,100.00
2022-12-13T04:57:50.487Z,99.81
2022-12-13T05:00:17.198Z,100.00
2022-12-13T05:02:44.063Z,100.00
2022-12-13T05:05:11.351Z,99.90
2022-12-13T05:07:42.314Z,100.00
2022-12-13T05:10:10.356Z,99.38
2022-12-13T05:12:36.995Z,98.51
2022-12-13T05:15:03.954Z,97.65
2022-12-13T05:17:30.585Z,100.00
2022-12-13T05:19:57.291Z,99.50
2022-12-13T05:22:23.954Z,98.32
2022-12-13T05:24:50.599Z,97.28
2022-12-13T05:27:23.965Z,98.61
2022-12-13T05:30:03.997Z,98.62
2022-12-13T05:32:42.751Z,97.04
2022-12-13T05:35:23.480Z,96.99
2022-12-13T05:37:55.303Z,96.56
2022-12-13T05:40:23.407Z,97.91
2022-12-13T05:42:50.238Z,99.61
2022-12-13T05:45:20.796Z,98.96
2022-12-13T05:47:47.725Z,98.65
2022-12-13T05:50:15.793Z,100.00
2022-12-13T05:52:43.356Z,100.00
2022-12-13T05:55:11.382Z,100.00
2022-12-13T05:57:38.821Z,100.00
2022-12-13T06:00:07.701Z,100.00
2022-12-13T06:02:54.810Z,97.91
2022-12-13T06:05:21.543Z,97.29
2022-12-13T06:07:52.115Z,92.66
2022-12-13T06:10:22.097Z,92.91
2022-12-13T06:12:49.008Z,92.35
2022-12-13T06:15:22.449Z,92.44
2022-12-13T06:17:49.536Z,92.54
2022-12-13T06:20:23.410Z,93.06
2022-12-13T06:22:52.620Z,93.70
2022-12-13T06:25:31.542Z,91.95
2022-12-13T06:28:01.628Z,92.09
2022-12-13T06:30:31.882Z,90.88
2022-12-13T06:32:58.567Z,90.26
2022-12-13T06:35:29.912Z,90.29
2022-12-13T06:38:00.943Z,90.73
2022-12-13T06:40:31.976Z,90.58
2022-12-13T06:42:58.607Z,90.33
2022-12-13T06:45:25.446Z,90.35
2022-12-13T06:47:52.273Z,91.70
2022-12-13T06:50:18.899Z,90.51
2022-12-13T06:52:48.608Z,90.51
2022-12-13T06:55:15.443Z,90.05
2022-12-13T06:57:51.020Z,94.32
2022-12-13T07:00:22.385Z,100.00
2022-12-13T07:02:56.093Z,100.00
2022-12-13T07:05:23.111Z,100.00
2022-12-13T07:07:49.814Z,100.00
2022-12-13T07:10:22.641Z,99.56
2022-12-13T07:12:49.942Z,97.29
2022-12-13T07:15:16.610Z,97.76
2022-12-13T07:17:43.281Z,98.61
2022-12-13T07:20:10.601Z,96.99
2022-12-13T07:22:44.958Z,95.16
2022-12-13T07:25:28.441Z,100.00
2022-12-13T07:28:01.897Z,100.00
2022-12-13T07:30:30.930Z,100.00
2022-12-13T07:32:57.534Z,97.60
2022-12-13T07:35:24.120Z,96.84
2022-12-13T07:37:50.705Z,97.19
2022-12-13T07:40:17.303Z,97.02
2022-12-13T07:42:50.325Z,99.93
2022-12-13T07:45:17.096Z,100.00
2022-12-13T07:47:43.805Z,100.00
2022-12-13T07:50:23.749Z,100.00
2022-12-13T07:52:52.356Z,100.00
2022-12-13T07:55:18.950Z,100.00
2022-12-13T07:57:49.973Z,100.00
2022-12-13T08:00:16.967Z,100.00
2022-12-13T08:02:43.550Z,99.66
2022-12-13T08:05:26.062Z,100.00
2022-12-13T08:07:53.484Z,100.00
2022-12-13T08:10:20.170Z,100.00
2022-12-13T08:12:46.857Z,100.00
2022-12-13T08:15:16.515Z,97.12
2022-12-13T08:17:43.370Z,98.70
2022-12-13T08:20:10.393Z,98.64
2022-12-13T08:22:37.212Z,97.42
2022-12-13T08:25:04.170Z,97.27
2022-12-13T08:27:30.802Z,95.62
2022-12-13T08:29:57.446Z,98.16
2022-12-13T08:32:24.427Z,94.44
2022-12-13T08:34:51.039Z,93.93
2022-12-13T08:37:18.154Z,94.30
2022-12-13T08:39:45.145Z,93.33
2022-12-13T08:42:18.360Z,91.58
2022-12-13T08:44:51.468Z,90.81
2022-12-13T08:47:25.882Z,92.00
2022-12-13T08:49:54.559Z,91.85
2022-12-13T08:52:22.406Z,94.11
2022-12-13T08:54:49.006Z,95.31
2022-12-13T08:57:15.591Z,95.21
2022-12-13T08:59:42.435Z,95.46
2022-12-13T09:02:15.560Z,94.53
2022-12-13T09:04:42.549Z,93.94
2022-12-13T09:07:09.172Z,94.30
2022-12-13T09:09:36.998Z,93.96
2022-12-13T09:12:10.374Z,94.47
2022-12-13T09:14:45.310Z,90.94
2022-12-13T09:17:23.750Z,90.32
2022-12-13T09:19:58.026Z,90.05
2022-12-13T09:22:33.378Z,88.46
2022-12-13T09:25:04.047Z,87.75
2022-12-13T09:27:39.853Z,87.99
2022-12-13T09:30:08.306Z,89.37
2022-12-13T09:32:34.926Z,83.75
2022-12-13T09:35:01.549Z,80.21
2022-12-13T09:37:29.586Z,82.71
2022-12-13T09:39:56.195Z,81.29
2022-12-13T09:42:30.869Z,77.64
2022-12-13T09:45:06.784Z,78.59
2022-12-13T09:47:51.523Z,81.11
2022-12-13T09:50:38.575Z,77.79
2022-12-13T09:53:11.862Z,79.97
2022-12-13T09:55:50.780Z,78.79
2022-12-13T09:58:28.037Z,79.30
2022-12-13T10:00:56.542Z,79.72
2022-12-13T10:03:25.572Z,77.32
2022-12-13T10:06:01.000Z,78.54
2022-12-13T10:08:35.900Z,76.45
2022-12-13T10:11:02.774Z,79.00
2022-12-13T10:13:47.684Z,77.93
2022-12-13T10:16:23.293Z,78.03
2022-12-13T10:18:51.403Z,75.00
2022-12-13T10:21:25.208Z,74.28
2022-12-13T10:26:39.218Z,76.45
2022-12-13T10:29:06.863Z,73.72
2022-12-13T10:31:45.736Z,73.18
2022-12-13T10:34:35.663Z,71.35
2022-12-13T10:37:23.813Z,73.17
2022-12-13T10:39:50.434Z,72.85
2022-12-13T10:42:22.570Z,72.90
2022-12-13T10:45:10.924Z,74.70
2022-12-13T10:47:37.770Z,72.85
2022-12-13T10:50:05.031Z,74.64
2022-12-13T10:52:32.761Z,70.27
2022-12-13T10:55:23.134Z,73.32
2022-12-13T10:57:59.820Z,68.60
2022-12-13T11:00:37.467Z,65.09
2022-12-13T11:03:04.947Z,66.46
2022-12-13T11:05:36.871Z,66.63
2022-12-13T11:08:32.991Z,65.46
2022-12-13T11:11:05.163Z,67.56
2022-12-13T11:13:35.567Z,68.74
2022-12-13T11:16:03.923Z,68.21
2022-12-13T11:18:36.414Z,66.36
2022-12-13T11:21:05.361Z,67.18
2022-12-13T11:23:37.573Z,67.26
2022-12-13T11:26:24.107Z,64.97
2022-12-13T11:28:51.347Z,62.64
2022-12-13T11:31:59.154Z,63.15
2022-12-13T11:34:44.143Z,64.39
2022-12-13T11:37:40.932Z,62.72
2022-12-13T11:40:25.829Z,61.24
2022-12-13T11:43:41.523Z,61.76
2022-12-13T11:46:19.904Z,61.42
2022-12-13T11:49:03.243Z,58.57
2022-12-13T11:52:10.297Z,61.25
2022-12-13T11:55:15.108Z,59.82
2022-12-13T11:57:46.348Z,59.48
2022-12-13T12:00:33.882Z,59.36
2022-12-13T12:03:14.370Z,57.13
2022-12-13T12:05:47.742Z,61.46
2022-12-13T12:08:48.043Z,60.92
2022-12-13T12:11:23.583Z,59.40
2022-12-13T12:14:15.207Z,61.67
2022-12-13T12:17:17.753Z,61.00
2022-12-13T12:19:49.488Z,61.58
2022-12-13T12:22:34.094Z,60.10
2022-12-13T12:25:12.839Z,64.03
2022-12-13T12:27:48.244Z,60.30
2022-12-13T12:30:23.188Z,60.32
2022-12-13T12:32:51.677Z,62.97
2022-12-13T12:35:27.865Z,61.33
2022-12-13T12:38:34.744Z,61.93
2022-12-13T12:41:28.044Z,58.25
2022-12-13T12:44:21.406Z,60.16
2022-12-13T12:47:32.644Z,61.70
2022-12-13T12:49:57.807Z,60.01
2022-12-13T12:52:42.681Z,59.86
2022-12-13T12:55:15.260Z,58.96
2022-12-13T12:58:03.688Z,59.15
2022-12-13T13:00:47.602Z,60.74
2022-12-13T13:03:24.201Z,57.34
2022-12-13T13:06:05.276Z,58.55
2022-12-13T13:08:53.439Z,57.81
2022-12-13T13:11:25.512Z,60.75
2022-12-13T13:14:01.794Z,61.41
2022-12-13T13:16:39.950Z,60.49
2022-12-13T13:19:12.628Z,60.19
2022-12-13T13:22:01.469Z,59.06
2022-12-13T13:24:31.613Z,58.71
2022-12-13T13:27:19.885Z,59.90
2022-12-13T13:29:46.743Z,58.90
2022-12-13T13:32:29.370Z,60.14
2022-12-13T13:35:28.424Z,60.79
2022-12-13T13:37:55.863Z,62.05
2022-12-13T13:40:34.477Z,60.23
2022-12-13T13:43:06.870Z,60.27
2022-12-13T13:45:51.592Z,62.56
2022-12-13T13:48:42.484Z,63.48
2022-12-13T13:51:18.241Z,62.02
2022-12-13T13:54:31.180Z,63.41
2022-12-13T13:57:16.397Z,64.19
2022-12-13T13:59:45.779Z,64.00
2022-12-13T14:02:36.768Z,61.80
2022-12-13T14:05:25.190Z,62.35
2022-12-13T14:08:03.852Z,60.77
2022-12-13T14:11:01.462Z,61.50
2022-12-13T14:14:06.011Z,62.79
2022-12-13T14:16:48.867Z,61.34
2022-12-13T14:20:05.376Z,64.59
2022-12-13T14:22:49.762Z,63.86
2022-12-13T14:25:52.548Z,60.58
2022-12-13T14:28:50.654Z,63.29
2022-12-13T14:31:24.387Z,65.40
2022-12-13T14:33:56.403Z,65.36
2022-12-13T14:36:32.316Z,67.35
2022-12-13T14:39:03.665Z,67.41
2022-12-13T14:41:30.393Z,66.70
2022-12-13T14:44:29.849Z,66.49
2022-12-13T14:46:57.527Z,66.70
2022-12-13T14:49:26.969Z,68.32
2022-12-13T14:52:03.406Z,68.74
2022-12-13T14:54:40.833Z,69.05
2022-12-13T14:57:16.798Z,68.25
2022-12-13T14:59:50.457Z,68.92
2022-12-13T15:02:30.932Z,68.51
2022-12-13T15:05:04.585Z,69.56
2022-12-13T15:07:39.933Z,68.46
2022-12-13T15:10:26.823Z,68.85
2022-12-13T15:12:55.146Z,69.72
2022-12-13T15:15:37.845Z,69.52
2022-12-13T15:18:24.815Z,70.10
2022-12-13T15:20:53.515Z,70.59
2022-12-13T15:23:23.047Z,70.02
2022-12-13T15:26:08.668Z,70.97
2022-12-13T15:28:39.513Z,70.26
2022-12-13T15:31:07.028Z,69.72
2022-12-13T15:33:37.931Z,70.42
2022-12-13T15:36:15.800Z,70.14
2022-12-13T15:38:54.788Z,70.93
2022-12-13T15:41:29.210Z,71.77
2022-12-13T15:44:16.042Z,70.54
2022-12-13T15:46:45.599Z,70.56
2022-12-13T15:49:24.461Z,69.19
2022-12-13T15:52:00.077Z,70.92
2022-12-13T15:54:26.918Z,71.77
2022-12-13T15:57:21.689Z,71.46
2022-12-13T15:59:48.878Z,72.92
2022-12-13T16:02:21.238Z,72.23
2022-12-13T16:04:47.942Z,73.40
2022-12-13T16:07:43.967Z,73.57
2022-12-13T16:10:18.696Z,74.06
2022-12-13T16:12:49.944Z,74.30
2022-12-13T16:15:29.180Z,74.18
2022-12-13T16:18:27.960Z,73.81
2022-12-13T16:20:55.319Z,74.09
2022-12-13T16:23:27.869Z,73.77
2022-12-13T16:25:54.743Z,73.18
2022-12-13T16:28:21.330Z,74.71
2022-12-13T16:30:52.875Z,74.91
2022-12-13T16:33:26.848Z,75.19
2022-12-13T16:35:57.005Z,75.40
2022-12-13T16:38:26.626Z,75.54
2022-12-13T16:40:55.610Z,75.67
2022-12-13T16:43:32.853Z,75.52
2022-12-13T16:46:02.149Z,75.36
2022-12-13T16:48:49.113Z,75.85
2022-12-13T16:51:15.688Z,75.88
2022-12-13T16:53:42.267Z,76.16
2022-12-13T16:56:08.923Z,75.92
2022-12-13T16:58:35.521Z,75.95
2022-12-13T17:01:02.171Z,76.63
2022-12-13T17:03:34.785Z,76.58
2022-12-13T17:06:01.758Z,75.85
2022-12-13T17:08:28.467Z,75.67
2022-12-13T17:10:58.258Z,75.69
2022-12-13T17:13:25.883Z,76.00
2022-12-13T17:15:59.153Z,76.10
2022-12-13T17:18:27.630Z,77.09
2022-12-13T17:20:58.580Z,76.92
2022-12-13T17:23:26.647Z,77.79
2022-12-13T17:25:58.244Z,77.06
2022-12-13T17:28:25.767Z,77.86
2022-12-13T17:30:55.014Z,78.55
2022-12-13T17:33:22.234Z,77.88
2022-12-13T17:35:48.960Z,77.38
2022-12-13T17:38:15.549Z,78.13
2022-12-13T17:40:42.191Z,77.40
2022-12-13T17:43:27.222Z,77.59
2022-12-13T17:46:07.623Z,77.21
2022-12-13T17:48:40.214Z,77.78
2022-12-13T17:51:09.179Z,78.41
2022-12-13T17:53:36.391Z,78.20
2022-12-13T17:56:05.504Z,77.58
2022-12-13T17:58:32.088Z,78.33
2022-12-13T18:00:59.442Z,78.63
2022-12-13T18:03:26.589Z,78.15
2022-12-13T18:05:58.069Z,79.40
2022-12-13T18:08:25.296Z,80.21
2022-12-13T18:11:23.932Z,81.08
2022-12-13T18:13:45.758Z,80.86
2022-12-13T18:16:14.835Z,80.59
2022-12-13T18:18:42.030Z,79.56
2022-12-13T18:21:21.660Z,78.64
2022-12-13T18:23:55.017Z,78.10
2022-12-13T18:26:22.522Z,78.17
2022-12-13T18:28:49.109Z,78.69
2022-12-13T18:31:18.297Z,78.69
2022-12-13T18:33:47.859Z,77.57
2022-12-13T18:36:15.539Z,78.90
2022-12-13T18:38:43.041Z,79.40
2022-12-13T18:41:11.745Z,80.17
2022-12-13T18:43:38.413Z,80.94
2022-12-13T18:46:05.585Z,81.67
2022-12-13T18:48:32.384Z,80.88
2022-12-13T18:51:03.846Z,80.35
2022-12-13T18:53:33.517Z,80.50
2022-12-13T18:56:02.248Z,79.00
2022-12-13T18:58:28.836Z,79.00
2022-12-13T19:01:02.524Z,80.16
2022-12-13T19:03:29.976Z,80.90
2022-12-13T19:05:57.239Z,82.34
2022-12-13T19:08:24.213Z,81.96
2022-12-13T19:10:50.802Z,82.40
2022-12-13T19:13:17.398Z,81.07
2022-12-13T19:15:44.090Z,79.95
2022-12-13T19:18:10.803Z,79.03
2022-12-13T19:20:37.495Z,78.79
2022-12-13T19:23:04.132Z,79.49
2022-12-13T19:25:30.824Z,81.11
2022-12-13T19:27:57.413Z,81.17
2022-12-13T19:30:24.048Z,80.46
2022-12-13T19:32:50.656Z,79.79
2022-12-13T19:35:17.337Z,79.46
2022-12-13T19:37:43.961Z,79.13
2022-12-13T19:40:10.996Z,78.61
2022-12-13T19:42:37.559Z,79.34
2022-12-13T19:45:04.374Z,78.75
2022-12-13T19:47:30.966Z,78.55
2022-12-13T19:49:57.556Z,79.54
2022-12-13T19:52:24.203Z,79.11
2022-12-13T19:54:50.797Z,78.95
2022-12-13T19:57:17.443Z,79.00
2022-12-13T19:59:44.060Z,79.27
2022-12-13T20:02:14.530Z,79.41
2022-12-13T20:04:41.140Z,79.61
2022-12-13T20:07:07.745Z,80.33
2022-12-13T20:09:34.326Z,80.42
2022-12-13T20:12:01.992Z,80.76
2022-12-13T20:14:28.599Z,81.35
2022-12-13T20:16:55.177Z,81.09
2022-12-13T20:19:23.316Z,80.94
2022-12-13T20:21:54.988Z,79.97
2022-12-13T20:24:23.458Z,80.24
2022-12-13T20:26:50.026Z,80.75
2022-12-13T20:29:18.171Z,81.51
2022-12-13T20:31:48.350Z,81.42
2022-12-13T20:34:15.917Z,80.61
2022-12-13T20:36:42.819Z,80.07
2022-12-13T20:39:11.805Z,79.45
2022-12-13T20:41:38.387Z,79.61
2022-12-13T20:44:06.897Z,81.14
2022-12-13T20:46:34.185Z,81.45
2022-12-13T20:49:03.330Z,82.98
2022-12-13T20:51:31.950Z,84.31
2022-12-13T20:53:58.777Z,83.64
2022-12-13T20:56:31.132Z,84.57
2022-12-13T20:58:57.696Z,82.21
2022-12-13T21:01:29.048Z,82.35
2022-12-13T21:03:58.132Z,83.89
2022-12-13T21:06:24.731Z,83.73
2022-12-13T21:08:51.322Z,83.03
2022-12-13T21:11:19.915Z,85.07
2022-12-13T21:13:47.287Z,84.68
2022-12-13T21:16:15.167Z,83.99
2022-12-13T21:18:41.844Z,83.24
2022-12-13T21:21:09.470Z,82.01
2022-12-13T21:23:36.902Z,82.33
2022-12-13T21:26:03.609Z,83.92
2022-12-13T21:28:30.493Z,85.04
2022-12-13T21:31:01.914Z,85.50
2022-12-13T21:33:29.343Z,86.07
2022-12-13T21:35:56.667Z,85.43
2022-12-13T21:38:23.280Z,84.77
2022-12-13T21:40:50.639Z,85.15
2022-12-13T21:43:17.333Z,83.83
2022-12-13T21:45:44.537Z,83.95
2022-12-13T21:48:13.885Z,83.93
2022-12-13T21:50:40.457Z,83.98
2022-12-13T21:53:07.036Z,83.68
2022-12-13T21:55:40.695Z,84.06
2022-12-13T21:58:08.845Z,83.74
2022-12-13T22:00:36.564Z,83.34
2022-12-13T22:03:04.211Z,83.55
2022-12-13T22:05:30.783Z,84.18
2022-12-13T22:07:57.370Z,84.32
2022-12-13T22:10:23.969Z,83.11
2022-12-13T22:12:50.602Z,83.23
2022-12-13T22:15:17.284Z,81.83
2022-12-13T22:17:43.874Z,81.41
2022-12-13T22:20:12.692Z,81.53
2022-12-13T22:22:40.663Z,81.35
2022-12-13T22:25:07.967Z,80.40
2022-12-13T22:27:34.626Z,81.10
2022-12-13T22:30:01.231Z,81.72
2022-12-13T22:32:31.028Z,83.12
2022-12-13T22:34:57.828Z,83.27
2022-12-13T22:37:24.790Z,82.00
2022-12-13T22:39:51.466Z,81.59
2022-12-13T22:42:18.075Z,82.42
2022-12-13T22:44:44.850Z,82.11
2022-12-13T22:47:11.429Z,82.66
2022-12-13T22:49:38.134Z,84.15
2022-12-13T22:52:04.950Z,85.26
2022-12-13T22:54:31.552Z,85.04
2022-12-13T22:56:58.113Z,85.26
2022-12-13T22:59:24.711Z,84.34
2022-12-13T23:01:51.500Z,83.99
2022-12-13T23:04:18.356Z,82.93
2022-12-13T23:06:44.957Z,83.03
2022-12-13T23:09:12.954Z,83.25
2022-12-13T23:11:39.709Z,84.51
2022-12-13T23:14:09.517Z,83.77
2022-12-13T23:16:36.861Z,82.88
2022-12-13T23:19:39.839Z,83.55
2022-12-13T23:21:53.067Z,84.02
2022-12-13T23:24:19.799Z,83.41
2022-12-13T23:26:46.443Z,82.98
2022-12-13T23:29:13.144Z,83.09
2022-12-13T23:31:42.343Z,83.65
2022-12-13T23:34:15.266Z,82.71
2022-12-13T23:36:41.871Z,82.54
2022-12-13T23:39:08.485Z,83.54
2022-12-13T23:41:35.536Z,83.43
2022-12-13T23:44:02.157Z,83.03
2022-12-13T23:46:34.629Z,84.12
2022-12-13T23:49:03.225Z,83.34
2022-12-13T23:51:30.025Z,84.65
2022-12-13T23:53:56.633Z,84.17
2022-12-13T23:56:23.680Z,84.45
2022-12-13T23:58:50.358Z,83.00
